sensor_id;sensor_type;location;lat;lon;timestamp;P1;durP1;ratioP1;P2;durP2;ratioP2
75009;SDS011;63564;46.840;18.336;2024-03-22T00:02:05;14.98;;;5.63;;
75009;SDS011;63564;46.840;18.336;2024-03-22T00:05:12;19.45;;;8.48;;
75009;SDS011;63564;46.840;18.336;2024-03-22T00:08:22;13.85;;;7.10;;
75009;SDS011;63564;46.840;18.336;2024-03-22T00:11:28;16.85;;;7.72;;
75009;SDS011;63564;46.840;18.336;2024-03-22T00:14:28;15.17;;;7.00;;
75009;SDS011;63564;46.840;18.336;2024-03-22T00:17:34;17.17;;;6.97;;
75009;SDS011;63564;46.840;18.336;2024-03-22T00:20:56;14.57;;;6.72;;
75009;SDS011;63564;46.840;18.336;2024-03-22T00:24:07;16.42;;;5.97;;
75009;SDS011;63564;46.840;18.336;2024-03-22T00:27:15;14.80;;;6.35;;
75009;SDS011;63564;46.840;18.336;2024-03-22T00:30:27;11.07;;;6.15;;
75009;SDS011;63564;46.840;18.336;2024-03-22T00:33:36;15.00;;;6.50;;
75009;SDS011;63564;46.840;18.336;2024-03-22T00:36:45;16.63;;;6.70;;
75009;SDS011;63564;46.840;18.336;2024-03-22T00:39:46;13.75;;;6.93;;
75009;SDS011;63564;46.840;18.336;2024-03-22T00:42:47;14.73;;;6.20;;
75009;SDS011;63564;46.840;18.336;2024-03-22T00:45:56;13.25;;;5.78;;
75009;SDS011;63564;46.840;18.336;2024-03-22T00:49:15;13.55;;;6.28;;
75009;SDS011;63564;46.840;18.336;2024-03-22T00:52:16;16.02;;;6.72;;
75009;SDS011;63564;46.840;18.336;2024-03-22T00:55:40;13.20;;;6.10;;
75009;SDS011;63564;46.840;18.336;2024-03-22T00:59:03;13.10;;;6.18;;
75009;SDS011;63564;46.840;18.336;2024-03-22T01:02:23;12.52;;;5.47;;
75009;SDS011;63564;46.840;18.336;2024-03-22T01:05:27;14.18;;;6.18;;
75009;SDS011;63564;46.840;18.336;2024-03-22T01:08:40;12.75;;;5.75;;
75009;SDS011;63564;46.840;18.336;2024-03-22T01:11:58;13.65;;;5.60;;
75009;SDS011;63564;46.840;18.336;2024-03-22T01:15:07;13.43;;;6.00;;
75009;SDS011;63564;46.840;18.336;2024-03-22T01:18:16;12.07;;;5.65;;
75009;SDS011;63564;46.840;18.336;2024-03-22T01:21:22;15.90;;;6.63;;
75009;SDS011;63564;46.840;18.336;2024-03-22T01:24:31;16.23;;;6.32;;
75009;SDS011;63564;46.840;18.336;2024-03-22T01:27:32;11.90;;;5.35;;
75009;SDS011;63564;46.840;18.336;2024-03-22T01:30:33;13.35;;;6.00;;
75009;SDS011;63564;46.840;18.336;2024-03-22T01:33:37;12.13;;;5.00;;
75009;SDS011;63564;46.840;18.336;2024-03-22T01:36:38;10.80;;;4.90;;
75009;SDS011;63564;46.840;18.336;2024-03-22T01:39:42;16.55;;;5.78;;
75009;SDS011;63564;46.840;18.336;2024-03-22T01:42:53;11.13;;;5.00;;
75009;SDS011;63564;46.840;18.336;2024-03-22T01:46:01;11.97;;;5.63;;
75009;SDS011;63564;46.840;18.336;2024-03-22T01:49:03;11.15;;;5.35;;
75009;SDS011;63564;46.840;18.336;2024-03-22T01:52:17;12.18;;;5.53;;
75009;SDS011;63564;46.840;18.336;2024-03-22T01:55:33;13.68;;;5.18;;
75009;SDS011;63564;46.840;18.336;2024-03-22T01:58:37;10.52;;;5.68;;
75009;SDS011;63564;46.840;18.336;2024-03-22T02:01:48;12.93;;;5.93;;
75009;SDS011;63564;46.840;18.336;2024-03-22T02:04:56;12.80;;;5.82;;
75009;SDS011;63564;46.840;18.336;2024-03-22T02:07:58;15.35;;;7.22;;
75009;SDS011;63564;46.840;18.336;2024-03-22T02:11:16;12.18;;;5.82;;
75009;SDS011;63564;46.840;18.336;2024-03-22T02:14:20;14.20;;;6.03;;
75009;SDS011;63564;46.840;18.336;2024-03-22T02:17:35;17.80;;;6.53;;
75009;SDS011;63564;46.840;18.336;2024-03-22T02:20:36;12.85;;;5.35;;
75009;SDS011;63564;46.840;18.336;2024-03-22T02:23:52;13.32;;;5.78;;
75009;SDS011;63564;46.840;18.336;2024-03-22T02:26:55;18.23;;;5.80;;
75009;SDS011;63564;46.840;18.336;2024-03-22T02:29:59;12.33;;;5.63;;
75009;SDS011;63564;46.840;18.336;2024-03-22T02:33:05;14.45;;;5.43;;
75009;SDS011;63564;46.840;18.336;2024-03-22T02:36:14;12.00;;;5.30;;
75009;SDS011;63564;46.840;18.336;2024-03-22T02:39:32;14.48;;;5.00;;
75009;SDS011;63564;46.840;18.336;2024-03-22T02:42:41;10.30;;;4.15;;
75009;SDS011;63564;46.840;18.336;2024-03-22T02:45:53;8.73;;;4.30;;
75009;SDS011;63564;46.840;18.336;2024-03-22T02:49:04;17.38;;;5.53;;
75009;SDS011;63564;46.840;18.336;2024-03-22T02:52:19;13.13;;;5.60;;
75009;SDS011;63564;46.840;18.336;2024-03-22T02:55:22;10.82;;;5.25;;
75009;SDS011;63564;46.840;18.336;2024-03-22T02:58:24;9.57;;;5.03;;
75009;SDS011;63564;46.840;18.336;2024-03-22T03:01:25;13.05;;;5.22;;
75009;SDS011;63564;46.840;18.336;2024-03-22T03:04:31;17.60;;;5.85;;
75009;SDS011;63564;46.840;18.336;2024-03-22T03:07:34;11.52;;;4.75;;
75009;SDS011;63564;46.840;18.336;2024-03-22T03:10:37;9.80;;;4.53;;
75009;SDS011;63564;46.840;18.336;2024-03-22T03:13:45;13.35;;;4.28;;
75009;SDS011;63564;46.840;18.336;2024-03-22T03:16:47;9.38;;;5.28;;
75009;SDS011;63564;46.840;18.336;2024-03-22T03:20:06;7.88;;;3.88;;
75009;SDS011;63564;46.840;18.336;2024-03-22T03:23:16;10.55;;;5.43;;
75009;SDS011;63564;46.840;18.336;2024-03-22T03:26:29;10.17;;;4.53;;
75009;SDS011;63564;46.840;18.336;2024-03-22T03:29:41;9.35;;;4.50;;
75009;SDS011;63564;46.840;18.336;2024-03-22T03:32:44;12.90;;;5.90;;
75009;SDS011;63564;46.840;18.336;2024-03-22T03:35:46;10.10;;;4.45;;
75009;SDS011;63564;46.840;18.336;2024-03-22T03:42:13;10.70;;;4.80;;
75009;SDS011;63564;46.840;18.336;2024-03-22T03:45:22;14.15;;;6.20;;
75009;SDS011;63564;46.840;18.336;2024-03-22T03:48:38;8.90;;;4.35;;
75009;SDS011;63564;46.840;18.336;2024-03-22T03:51:44;10.07;;;4.20;;
75009;SDS011;63564;46.840;18.336;2024-03-22T03:54:48;8.50;;;4.60;;
75009;SDS011;63564;46.840;18.336;2024-03-22T03:57:52;10.60;;;5.43;;
75009;SDS011;63564;46.840;18.336;2024-03-22T04:01:11;10.30;;;4.65;;
75009;SDS011;63564;46.840;18.336;2024-03-22T04:04:14;10.27;;;5.15;;
75009;SDS011;63564;46.840;18.336;2024-03-22T04:07:20;9.17;;;4.60;;
75009;SDS011;63564;46.840;18.336;2024-03-22T04:10:25;8.55;;;4.45;;
75009;SDS011;63564;46.840;18.336;2024-03-22T04:13:39;9.63;;;4.47;;
75009;SDS011;63564;46.840;18.336;2024-03-22T04:16:49;15.35;;;5.25;;
75009;SDS011;63564;46.840;18.336;2024-03-22T04:19:57;10.98;;;5.03;;
75009;SDS011;63564;46.840;18.336;2024-03-22T04:23:00;9.03;;;4.70;;
75009;SDS011;63564;46.840;18.336;2024-03-22T04:26:05;11.45;;;4.50;;
75009;SDS011;63564;46.840;18.336;2024-03-22T04:29:14;9.23;;;3.40;;
75009;SDS011;63564;46.840;18.336;2024-03-22T04:32:24;10.18;;;4.70;;
75009;SDS011;63564;46.840;18.336;2024-03-22T04:35:38;8.97;;;3.97;;
75009;SDS011;63564;46.840;18.336;2024-03-22T04:38:46;8.85;;;3.65;;
75009;SDS011;63564;46.840;18.336;2024-03-22T04:41:46;8.45;;;4.38;;
75009;SDS011;63564;46.840;18.336;2024-03-22T04:44:50;9.82;;;4.55;;
75009;SDS011;63564;46.840;18.336;2024-03-22T04:48:11;8.17;;;3.73;;
75009;SDS011;63564;46.840;18.336;2024-03-22T04:51:22;10.02;;;4.30;;
75009;SDS011;63564;46.840;18.336;2024-03-22T04:54:28;11.55;;;4.20;;
75009;SDS011;63564;46.840;18.336;2024-03-22T04:57:32;12.93;;;5.38;;
75009;SDS011;63564;46.840;18.336;2024-03-22T05:00:43;9.32;;;4.45;;
75009;SDS011;63564;46.840;18.336;2024-03-22T05:04:05;8.17;;;3.87;;
75009;SDS011;63564;46.840;18.336;2024-03-22T05:07:27;10.00;;;4.18;;
75009;SDS011;63564;46.840;18.336;2024-03-22T05:10:39;8.98;;;4.47;;
75009;SDS011;63564;46.840;18.336;2024-03-22T05:13:45;10.45;;;5.03;;
75009;SDS011;63564;46.840;18.336;2024-03-22T05:16:46;7.53;;;4.20;;
75009;SDS011;63564;46.840;18.336;2024-03-22T05:19:58;10.15;;;4.18;;
75009;SDS011;63564;46.840;18.336;2024-03-22T05:23:14;8.93;;;4.25;;
75009;SDS011;63564;46.840;18.336;2024-03-22T05:26:21;10.60;;;5.28;;
75009;SDS011;63564;46.840;18.336;2024-03-22T05:29:36;10.15;;;4.45;;
75009;SDS011;63564;46.840;18.336;2024-03-22T05:32:39;11.80;;;5.10;;
75009;SDS011;63564;46.840;18.336;2024-03-22T05:35:43;12.73;;;5.20;;
75009;SDS011;63564;46.840;18.336;2024-03-22T05:38:49;12.10;;;4.10;;
75009;SDS011;63564;46.840;18.336;2024-03-22T05:42:00;13.18;;;5.53;;
75009;SDS011;63564;46.840;18.336;2024-03-22T05:45:17;5.88;;;3.47;;
75009;SDS011;63564;46.840;18.336;2024-03-22T05:48:35;8.20;;;3.70;;
75009;SDS011;63564;46.840;18.336;2024-03-22T05:52:06;11.15;;;5.35;;
75009;SDS011;63564;46.840;18.336;2024-03-22T05:55:07;10.15;;;4.50;;
75009;SDS011;63564;46.840;18.336;2024-03-22T05:58:13;13.60;;;5.60;;
75009;SDS011;63564;46.840;18.336;2024-03-22T06:01:31;10.40;;;5.13;;
75009;SDS011;63564;46.840;18.336;2024-03-22T06:04:35;13.32;;;5.10;;
75009;SDS011;63564;46.840;18.336;2024-03-22T06:07:47;14.13;;;4.78;;
75009;SDS011;63564;46.840;18.336;2024-03-22T06:10:50;12.73;;;5.28;;
75009;SDS011;63564;46.840;18.336;2024-03-22T06:13:51;13.73;;;5.53;;
75009;SDS011;63564;46.840;18.336;2024-03-22T06:16:54;12.65;;;6.28;;
75009;SDS011;63564;46.840;18.336;2024-03-22T06:20:24;13.93;;;6.05;;
75009;SDS011;63564;46.840;18.336;2024-03-22T06:23:33;13.27;;;4.90;;
75009;SDS011;63564;46.840;18.336;2024-03-22T06:26:58;13.13;;;5.47;;
75009;SDS011;63564;46.840;18.336;2024-03-22T06:30:05;14.25;;;5.97;;
75009;SDS011;63564;46.840;18.336;2024-03-22T06:33:11;12.02;;;5.70;;
75009;SDS011;63564;46.840;18.336;2024-03-22T06:36:28;13.63;;;5.25;;
75009;SDS011;63564;46.840;18.336;2024-03-22T06:39:50;11.63;;;6.27;;
75009;SDS011;63564;46.840;18.336;2024-03-22T06:43:06;10.57;;;5.45;;
75009;SDS011;63564;46.840;18.336;2024-03-22T06:46:09;10.75;;;4.85;;
75009;SDS011;63564;46.840;18.336;2024-03-22T06:49:40;10.02;;;4.60;;
75009;SDS011;63564;46.840;18.336;2024-03-22T06:52:58;13.35;;;5.68;;
75009;SDS011;63564;46.840;18.336;2024-03-22T06:56:06;11.37;;;5.23;;
75009;SDS011;63564;46.840;18.336;2024-03-22T06:59:14;12.55;;;6.22;;
75009;SDS011;63564;46.840;18.336;2024-03-22T07:02:20;11.82;;;5.35;;
75009;SDS011;63564;46.840;18.336;2024-03-22T07:05:23;13.60;;;6.28;;
75009;SDS011;63564;46.840;18.336;2024-03-22T07:08:26;11.68;;;5.78;;
75009;SDS011;63564;46.840;18.336;2024-03-22T07:11:53;12.77;;;5.77;;
75009;SDS011;63564;46.840;18.336;2024-03-22T07:15:04;11.40;;;6.03;;
75009;SDS011;63564;46.840;18.336;2024-03-22T07:18:26;14.43;;;6.15;;
75009;SDS011;63564;46.840;18.336;2024-03-22T07:21:43;10.77;;;4.75;;
75009;SDS011;63564;46.840;18.336;2024-03-22T07:28:37;19.07;;;7.40;;
75009;SDS011;63564;46.840;18.336;2024-03-22T07:32:04;13.65;;;6.25;;
75009;SDS011;63564;46.840;18.336;2024-03-22T07:35:25;14.07;;;6.28;;
75009;SDS011;63564;46.840;18.336;2024-03-22T07:38:31;11.90;;;5.60;;
75009;SDS011;63564;46.840;18.336;2024-03-22T07:41:40;12.90;;;5.87;;
75009;SDS011;63564;46.840;18.336;2024-03-22T07:44:41;11.90;;;5.40;;
75009;SDS011;63564;46.840;18.336;2024-03-22T07:47:56;12.73;;;5.90;;
75009;SDS011;63564;46.840;18.336;2024-03-22T07:51:15;14.23;;;6.00;;
75009;SDS011;63564;46.840;18.336;2024-03-22T07:54:17;13.37;;;5.47;;
75009;SDS011;63564;46.840;18.336;2024-03-22T07:57:20;11.73;;;5.47;;
75009;SDS011;63564;46.840;18.336;2024-03-22T08:00:37;9.63;;;5.50;;
75009;SDS011;63564;46.840;18.336;2024-03-22T08:03:53;13.13;;;5.22;;
75009;SDS011;63564;46.840;18.336;2024-03-22T08:07:02;13.35;;;6.13;;
75009;SDS011;63564;46.840;18.336;2024-03-22T08:10:08;13.23;;;5.57;;
75009;SDS011;63564;46.840;18.336;2024-03-22T08:13:18;9.43;;;3.75;;
75009;SDS011;63564;46.840;18.336;2024-03-22T08:16:19;13.43;;;6.03;;
75009;SDS011;63564;46.840;18.336;2024-03-22T08:19:38;10.10;;;5.10;;
75009;SDS011;63564;46.840;18.336;2024-03-22T08:27:02;15.18;;;6.20;;
75009;SDS011;63564;46.840;18.336;2024-03-22T08:30:18;9.73;;;4.82;;
75009;SDS011;63564;46.840;18.336;2024-03-22T08:37:48;14.45;;;6.40;;
75009;SDS011;63564;46.840;18.336;2024-03-22T08:44:25;15.98;;;7.28;;
75009;SDS011;63564;46.840;18.336;2024-03-22T08:47:34;10.48;;;5.40;;
75009;SDS011;63564;46.840;18.336;2024-03-22T08:54:13;11.77;;;5.30;;
75009;SDS011;63564;46.840;18.336;2024-03-22T08:57:32;17.57;;;6.50;;
75009;SDS011;63564;46.840;18.336;2024-03-22T09:00:44;12.20;;;5.68;;
75009;SDS011;63564;46.840;18.336;2024-03-22T09:03:56;13.32;;;6.05;;
75009;SDS011;63564;46.840;18.336;2024-03-22T09:07:09;17.77;;;7.22;;
75009;SDS011;63564;46.840;18.336;2024-03-22T09:10:23;18.10;;;7.22;;
75009;SDS011;63564;46.840;18.336;2024-03-22T09:13:42;14.70;;;5.63;;
75009;SDS011;63564;46.840;18.336;2024-03-22T09:17:12;15.43;;;6.55;;
75009;SDS011;63564;46.840;18.336;2024-03-22T09:20:13;14.30;;;6.97;;
75009;SDS011;63564;46.840;18.336;2024-03-22T09:23:17;14.35;;;5.82;;
75009;SDS011;63564;46.840;18.336;2024-03-22T09:26:48;11.52;;;5.78;;
75009;SDS011;63564;46.840;18.336;2024-03-22T09:30:40;13.93;;;6.20;;
75009;SDS011;63564;46.840;18.336;2024-03-22T09:38:30;18.75;;;8.80;;
75009;SDS011;63564;46.840;18.336;2024-03-22T09:42:00;16.27;;;6.68;;
75009;SDS011;63564;46.840;18.336;2024-03-22T09:45:47;34.58;;;17.55;;
75009;SDS011;63564;46.840;18.336;2024-03-22T09:49:15;28.13;;;13.70;;
75009;SDS011;63564;46.840;18.336;2024-03-22T09:52:54;16.17;;;6.70;;
75009;SDS011;63564;46.840;18.336;2024-03-22T09:56:08;16.65;;;7.20;;
75009;SDS011;63564;46.840;18.336;2024-03-22T09:59:34;11.20;;;5.30;;
75009;SDS011;63564;46.840;18.336;2024-03-22T10:02:46;14.10;;;6.20;;
75009;SDS011;63564;46.840;18.336;2024-03-22T10:06:18;12.23;;;5.57;;
75009;SDS011;63564;46.840;18.336;2024-03-22T10:09:34;16.40;;;6.93;;
75009;SDS011;63564;46.840;18.336;2024-03-22T10:12:44;11.70;;;4.80;;
75009;SDS011;63564;46.840;18.336;2024-03-22T10:15:53;13.35;;;5.80;;
75009;SDS011;63564;46.840;18.336;2024-03-22T10:18:59;14.98;;;6.82;;
75009;SDS011;63564;46.840;18.336;2024-03-22T10:22:05;12.63;;;5.80;;
75009;SDS011;63564;46.840;18.336;2024-03-22T10:25:12;8.07;;;4.53;;
75009;SDS011;63564;46.840;18.336;2024-03-22T10:28:15;12.57;;;5.13;;
75009;SDS011;63564;46.840;18.336;2024-03-22T10:31:16;9.48;;;4.75;;
75009;SDS011;63564;46.840;18.336;2024-03-22T10:34:20;13.60;;;6.70;;
75009;SDS011;63564;46.840;18.336;2024-03-22T10:37:22;7.80;;;4.00;;
75009;SDS011;63564;46.840;18.336;2024-03-22T10:40:24;14.63;;;5.60;;
75009;SDS011;63564;46.840;18.336;2024-03-22T10:43:28;13.38;;;6.15;;
75009;SDS011;63564;46.840;18.336;2024-03-22T10:46:31;10.77;;;5.27;;
75009;SDS011;63564;46.840;18.336;2024-03-22T10:49:36;14.55;;;6.82;;
75009;SDS011;63564;46.840;18.336;2024-03-22T10:55:54;13.55;;;6.05;;
75009;SDS011;63564;46.840;18.336;2024-03-22T10:59:05;16.83;;;6.88;;
75009;SDS011;63564;46.840;18.336;2024-03-22T11:02:10;12.23;;;6.57;;
75009;SDS011;63564;46.840;18.336;2024-03-22T11:05:57;13.18;;;6.22;;
75009;SDS011;63564;46.840;18.336;2024-03-22T11:09:21;11.52;;;5.43;;
75009;SDS011;63564;46.840;18.336;2024-03-22T11:12:28;12.75;;;4.68;;
75009;SDS011;63564;46.840;18.336;2024-03-22T11:15:43;10.38;;;4.95;;
75009;SDS011;63564;46.840;18.336;2024-03-22T11:19:10;10.90;;;4.67;;
75009;SDS011;63564;46.840;18.336;2024-03-22T11:22:16;15.32;;;3.92;;
75009;SDS011;63564;46.840;18.336;2024-03-22T11:25:27;10.57;;;4.10;;
75009;SDS011;63564;46.840;18.336;2024-03-22T11:28:27;10.55;;;5.20;;
75009;SDS011;63564;46.840;18.336;2024-03-22T11:31:28;7.87;;;3.60;;
75009;SDS011;63564;46.840;18.336;2024-03-22T11:34:31;7.37;;;3.40;;
75009;SDS011;63564;46.840;18.336;2024-03-22T11:37:38;10.07;;;3.92;;
75009;SDS011;63564;46.840;18.336;2024-03-22T11:40:42;7.40;;;3.88;;
75009;SDS011;63564;46.840;18.336;2024-03-22T11:43:55;9.77;;;4.22;;
75009;SDS011;63564;46.840;18.336;2024-03-22T11:47:00;10.07;;;4.50;;
75009;SDS011;63564;46.840;18.336;2024-03-22T11:50:05;9.10;;;3.10;;
75009;SDS011;63564;46.840;18.336;2024-03-22T11:53:20;12.50;;;3.38;;
75009;SDS011;63564;46.840;18.336;2024-03-22T11:56:34;7.72;;;3.50;;
75009;SDS011;63564;46.840;18.336;2024-03-22T11:59:37;7.97;;;3.05;;
75009;SDS011;63564;46.840;18.336;2024-03-22T12:02:44;10.07;;;3.83;;
75009;SDS011;63564;46.840;18.336;2024-03-22T12:05:45;9.88;;;4.50;;
75009;SDS011;63564;46.840;18.336;2024-03-22T12:08:46;9.55;;;4.47;;
75009;SDS011;63564;46.840;18.336;2024-03-22T12:11:47;8.82;;;3.63;;
75009;SDS011;63564;46.840;18.336;2024-03-22T12:14:47;10.33;;;3.70;;
75009;SDS011;63564;46.840;18.336;2024-03-22T12:17:48;10.43;;;3.60;;
75009;SDS011;63564;46.840;18.336;2024-03-22T12:20:49;8.20;;;3.37;;
75009;SDS011;63564;46.840;18.336;2024-03-22T12:23:52;7.82;;;3.85;;
75009;SDS011;63564;46.840;18.336;2024-03-22T12:27:30;6.25;;;3.13;;
75009;SDS011;63564;46.840;18.336;2024-03-22T12:30:56;4.75;;;2.08;;
75009;SDS011;63564;46.840;18.336;2024-03-22T12:34:02;5.70;;;2.53;;
75009;SDS011;63564;46.840;18.336;2024-03-22T12:37:09;6.43;;;3.47;;
75009;SDS011;63564;46.840;18.336;2024-03-22T12:40:17;7.93;;;3.38;;
75009;SDS011;63564;46.840;18.336;2024-03-22T12:43:21;8.52;;;2.92;;
75009;SDS011;63564;46.840;18.336;2024-03-22T12:46:33;7.35;;;2.92;;
75009;SDS011;63564;46.840;18.336;2024-03-22T12:49:40;8.50;;;3.17;;
75009;SDS011;63564;46.840;18.336;2024-03-22T12:52:40;5.70;;;2.33;;
75009;SDS011;63564;46.840;18.336;2024-03-22T12:55:41;6.40;;;2.67;;
75009;SDS011;63564;46.840;18.336;2024-03-22T12:58:42;3.80;;;2.38;;
75009;SDS011;63564;46.840;18.336;2024-03-22T13:01:43;4.30;;;2.00;;
75009;SDS011;63564;46.840;18.336;2024-03-22T13:04:44;8.40;;;3.28;;
75009;SDS011;63564;46.840;18.336;2024-03-22T13:07:52;5.97;;;2.58;;
75009;SDS011;63564;46.840;18.336;2024-03-22T13:10:55;7.93;;;3.50;;
75009;SDS011;63564;46.840;18.336;2024-03-22T13:13:56;7.85;;;3.08;;
75009;SDS011;63564;46.840;18.336;2024-03-22T13:17:04;6.68;;;2.80;;
75009;SDS011;63564;46.840;18.336;2024-03-22T13:20:14;7.87;;;2.80;;
75009;SDS011;63564;46.840;18.336;2024-03-22T13:23:21;4.13;;;1.97;;
75009;SDS011;63564;46.840;18.336;2024-03-22T13:26:36;5.80;;;2.47;;
75009;SDS011;63564;46.840;18.336;2024-03-22T13:29:36;5.28;;;2.38;;
75009;SDS011;63564;46.840;18.336;2024-03-22T13:32:50;6.67;;;2.50;;
75009;SDS011;63564;46.840;18.336;2024-03-22T13:35:51;5.68;;;2.65;;
75009;SDS011;63564;46.840;18.336;2024-03-22T13:38:57;4.97;;;2.30;;
75009;SDS011;63564;46.840;18.336;2024-03-22T13:42:02;7.88;;;2.97;;
75009;SDS011;63564;46.840;18.336;2024-03-22T13:45:05;5.55;;;2.53;;
75009;SDS011;63564;46.840;18.336;2024-03-22T13:48:10;6.90;;;3.17;;
75009;SDS011;63564;46.840;18.336;2024-03-22T13:51:17;4.05;;;2.13;;
75009;SDS011;63564;46.840;18.336;2024-03-22T13:54:28;6.65;;;2.42;;
75009;SDS011;63564;46.840;18.336;2024-03-22T13:57:31;9.57;;;2.70;;
75009;SDS011;63564;46.840;18.336;2024-03-22T14:00:34;8.15;;;2.78;;
75009;SDS011;63564;46.840;18.336;2024-03-22T14:03:45;3.65;;;1.95;;
75009;SDS011;63564;46.840;18.336;2024-03-22T14:06:52;7.25;;;3.00;;
75009;SDS011;63564;46.840;18.336;2024-03-22T14:10:05;4.57;;;1.98;;
75009;SDS011;63564;46.840;18.336;2024-03-22T14:13:17;6.23;;;2.73;;
75009;SDS011;63564;46.840;18.336;2024-03-22T14:16:21;7.43;;;3.03;;
75009;SDS011;63564;46.840;18.336;2024-03-22T14:19:22;6.22;;;2.97;;
75009;SDS011;63564;46.840;18.336;2024-03-22T14:22:25;5.60;;;2.72;;
75009;SDS011;63564;46.840;18.336;2024-03-22T14:25:26;7.23;;;3.13;;
75009;SDS011;63564;46.840;18.336;2024-03-22T14:28:37;5.50;;;2.40;;
75009;SDS011;63564;46.840;18.336;2024-03-22T14:31:42;7.20;;;3.28;;
75009;SDS011;63564;46.840;18.336;2024-03-22T14:34:47;6.40;;;2.85;;
75009;SDS011;63564;46.840;18.336;2024-03-22T14:37:51;6.87;;;3.03;;
75009;SDS011;63564;46.840;18.336;2024-03-22T14:40:57;5.72;;;2.47;;
75009;SDS011;63564;46.840;18.336;2024-03-22T14:43:58;10.75;;;4.55;;
75009;SDS011;63564;46.840;18.336;2024-03-22T14:46:58;6.87;;;3.00;;
75009;SDS011;63564;46.840;18.336;2024-03-22T14:49:59;5.88;;;2.80;;
75009;SDS011;63564;46.840;18.336;2024-03-22T14:53:00;7.13;;;2.85;;
75009;SDS011;63564;46.840;18.336;2024-03-22T14:56:01;6.35;;;2.10;;
75009;SDS011;63564;46.840;18.336;2024-03-22T14:59:08;5.07;;;2.20;;
75009;SDS011;63564;46.840;18.336;2024-03-22T15:02:12;6.27;;;2.60;;
75009;SDS011;63564;46.840;18.336;2024-03-22T15:05:13;5.63;;;2.55;;
75009;SDS011;63564;46.840;18.336;2024-03-22T15:11:30;9.37;;;4.10;;
75009;SDS011;63564;46.840;18.336;2024-03-22T15:14:44;6.55;;;2.92;;
75009;SDS011;63564;46.840;18.336;2024-03-22T15:17:56;7.93;;;3.08;;
75009;SDS011;63564;46.840;18.336;2024-03-22T15:24:32;6.75;;;2.40;;
75009;SDS011;63564;46.840;18.336;2024-03-22T15:34:59;16.17;;;6.50;;
75009;SDS011;63564;46.840;18.336;2024-03-22T15:38:15;12.52;;;5.22;;
75009;SDS011;63564;46.840;18.336;2024-03-22T15:41:58;8.38;;;3.58;;
75009;SDS011;63564;46.840;18.336;2024-03-22T15:45:27;8.57;;;3.60;;
75009;SDS011;63564;46.840;18.336;2024-03-22T15:48:41;7.18;;;2.88;;
75009;SDS011;63564;46.840;18.336;2024-03-22T15:52:04;5.68;;;2.50;;
75009;SDS011;63564;46.840;18.336;2024-03-22T15:55:18;8.60;;;3.38;;
75009;SDS011;63564;46.840;18.336;2024-03-22T15:58:37;10.80;;;4.10;;
75009;SDS011;63564;46.840;18.336;2024-03-22T16:01:46;8.70;;;4.03;;
75009;SDS011;63564;46.840;18.336;2024-03-22T16:04:50;10.85;;;5.03;;
75009;SDS011;63564;46.840;18.336;2024-03-22T16:07:51;11.20;;;4.20;;
75009;SDS011;63564;46.840;18.336;2024-03-22T16:11:13;7.78;;;3.40;;
75009;SDS011;63564;46.840;18.336;2024-03-22T16:14:22;8.13;;;3.33;;
75009;SDS011;63564;46.840;18.336;2024-03-22T16:17:37;6.37;;;3.07;;
75009;SDS011;63564;46.840;18.336;2024-03-22T16:21:06;9.00;;;3.30;;
75009;SDS011;63564;46.840;18.336;2024-03-22T16:28:24;9.80;;;3.85;;
75009;SDS011;63564;46.840;18.336;2024-03-22T16:31:47;10.27;;;3.97;;
75009;SDS011;63564;46.840;18.336;2024-03-22T16:35:15;7.47;;;3.30;;
75009;SDS011;63564;46.840;18.336;2024-03-22T16:38:27;8.38;;;3.78;;
75009;SDS011;63564;46.840;18.336;2024-03-22T16:41:30;8.10;;;3.90;;
75009;SDS011;63564;46.840;18.336;2024-03-22T16:44:47;9.07;;;3.88;;
75009;SDS011;63564;46.840;18.336;2024-03-22T16:48:02;8.25;;;3.67;;
75009;SDS011;63564;46.840;18.336;2024-03-22T16:51:17;8.03;;;3.93;;
75009;SDS011;63564;46.840;18.336;2024-03-22T16:54:18;8.77;;;3.75;;
75009;SDS011;63564;46.840;18.336;2024-03-22T16:57:27;10.13;;;4.65;;
75009;SDS011;63564;46.840;18.336;2024-03-22T17:00:48;10.90;;;5.03;;
75009;SDS011;63564;46.840;18.336;2024-03-22T17:03:52;10.77;;;4.97;;
75009;SDS011;63564;46.840;18.336;2024-03-22T17:06:59;10.70;;;4.97;;
75009;SDS011;63564;46.840;18.336;2024-03-22T17:10:17;14.73;;;5.93;;
75009;SDS011;63564;46.840;18.336;2024-03-22T17:13:24;11.93;;;6.20;;
75009;SDS011;63564;46.840;18.336;2024-03-22T17:16:35;11.70;;;5.53;;
75009;SDS011;63564;46.840;18.336;2024-03-22T17:20:05;10.70;;;4.33;;
75009;SDS011;63564;46.840;18.336;2024-03-22T17:23:17;9.80;;;4.28;;
75009;SDS011;63564;46.840;18.336;2024-03-22T17:26:26;6.97;;;3.53;;
75009;SDS011;63564;46.840;18.336;2024-03-22T17:29:40;9.30;;;3.78;;
75009;SDS011;63564;46.840;18.336;2024-03-22T17:32:41;6.40;;;3.17;;
75009;SDS011;63564;46.840;18.336;2024-03-22T17:35:55;6.27;;;2.83;;
75009;SDS011;63564;46.840;18.336;2024-03-22T17:39:08;8.25;;;3.67;;
75009;SDS011;63564;46.840;18.336;2024-03-22T17:42:12;6.70;;;3.10;;
75009;SDS011;63564;46.840;18.336;2024-03-22T17:45:15;6.53;;;3.47;;
75009;SDS011;63564;46.840;18.336;2024-03-22T17:48:23;8.38;;;3.53;;
75009;SDS011;63564;46.840;18.336;2024-03-22T17:51:42;8.23;;;3.40;;
75009;SDS011;63564;46.840;18.336;2024-03-22T17:54:49;6.68;;;3.25;;
75009;SDS011;63564;46.840;18.336;2024-03-22T17:58:00;6.18;;;2.60;;
75009;SDS011;63564;46.840;18.336;2024-03-22T18:01:08;7.80;;;3.05;;
75009;SDS011;63564;46.840;18.336;2024-03-22T18:04:11;6.50;;;2.95;;
75009;SDS011;63564;46.840;18.336;2024-03-22T18:07:12;7.07;;;3.10;;
75009;SDS011;63564;46.840;18.336;2024-03-22T18:10:19;9.13;;;3.30;;
75009;SDS011;63564;46.840;18.336;2024-03-22T18:13:33;9.02;;;3.00;;
75009;SDS011;63564;46.840;18.336;2024-03-22T18:16:39;9.60;;;3.78;;
75009;SDS011;63564;46.840;18.336;2024-03-22T18:19:47;6.33;;;2.50;;
75009;SDS011;63564;46.840;18.336;2024-03-22T18:22:50;7.18;;;2.97;;
75009;SDS011;63564;46.840;18.336;2024-03-22T18:26:06;9.68;;;2.70;;
75009;SDS011;63564;46.840;18.336;2024-03-22T18:29:12;7.47;;;3.27;;
75009;SDS011;63564;46.840;18.336;2024-03-22T18:32:21;6.47;;;2.70;;
75009;SDS011;63564;46.840;18.336;2024-03-22T18:39:06;8.23;;;4.00;;
75009;SDS011;63564;46.840;18.336;2024-03-22T18:42:35;10.60;;;4.60;;
75009;SDS011;63564;46.840;18.336;2024-03-22T18:45:39;10.53;;;4.53;;
75009;SDS011;63564;46.840;18.336;2024-03-22T18:48:48;9.57;;;4.10;;
75009;SDS011;63564;46.840;18.336;2024-03-22T18:51:58;8.25;;;3.10;;
75009;SDS011;63564;46.840;18.336;2024-03-22T18:55:23;11.35;;;4.45;;
75009;SDS011;63564;46.840;18.336;2024-03-22T18:58:53;9.80;;;4.75;;
75009;SDS011;63564;46.840;18.336;2024-03-22T19:02:22;12.50;;;5.43;;
75009;SDS011;63564;46.840;18.336;2024-03-22T19:05:56;12.25;;;4.30;;
75009;SDS011;63564;46.840;18.336;2024-03-22T19:09:14;8.15;;;4.20;;
75009;SDS011;63564;46.840;18.336;2024-03-22T19:12:18;12.25;;;4.22;;
75009;SDS011;63564;46.840;18.336;2024-03-22T19:15:30;9.35;;;3.50;;
75009;SDS011;63564;46.840;18.336;2024-03-22T19:18:57;6.30;;;3.37;;
75009;SDS011;63564;46.840;18.336;2024-03-22T19:22:24;7.57;;;3.10;;
75009;SDS011;63564;46.840;18.336;2024-03-22T19:25:24;7.07;;;3.40;;
75009;SDS011;63564;46.840;18.336;2024-03-22T19:28:25;8.23;;;3.30;;
75009;SDS011;63564;46.840;18.336;2024-03-22T19:35:05;6.03;;;2.92;;